createdAt,value
2018-08-03T00:00:18.257Z,101961.11
2018-08-03T00:02:47.658Z,101957.56
2018-08-03T00:05:17.029Z,101958.72
2018-08-03T00:07:47.168Z,101962.13
2018-08-03T00:10:16.530Z,101960.38
2018-08-03T00:12:45.976Z,101967.19
2018-08-03T00:15:16.529Z,101958.87
2018-08-03T00:17:45.921Z,101962.28
2018-08-03T00:20:15.270Z,101958.52
2018-08-03T00:22:44.749Z,101957.58
2018-08-03T00:25:14.108Z,101954.50
2018-08-03T00:27:43.557Z,101951.16
2018-08-03T00:30:12.918Z,101957.42
2018-08-03T00:32:42.337Z,101963.45
2018-08-03T00:35:11.737Z,101957.78
2018-08-03T00:37:41.134Z,101953.51
2018-08-03T00:40:10.215Z,101955.28
2018-08-03T00:42:39.613Z,101956.52
2018-08-03T00:45:09.113Z,101952.27
2018-08-03T00:47:38.569Z,101951.48
2018-08-03T00:50:08.061Z,101949.88
2018-08-03T00:52:37.418Z,101950.28
2018-08-03T00:55:07.147Z,101955.34
2018-08-03T00:57:36.602Z,101945.16
2018-08-03T01:00:06.506Z,101951.44
2018-08-03T01:02:35.885Z,101947.27
2018-08-03T01:05:05.449Z,101949.38
2018-08-03T01:07:34.781Z,101949.74
2018-08-03T01:10:04.197Z,101951.40
2018-08-03T01:12:33.533Z,101948.45
2018-08-03T01:15:02.983Z,101947.64
2018-08-03T01:17:32.301Z,101950.50
2018-08-03T01:20:01.671Z,101949.38
2018-08-03T01:22:31.007Z,101956.97
2018-08-03T01:25:00.548Z,101954.80
2018-08-03T01:27:29.929Z,101958.12
2018-08-03T01:29:59.412Z,101961.83
2018-08-03T01:32:28.718Z,101957.09
2018-08-03T01:34:58.369Z,101952.42
2018-08-03T01:37:27.766Z,101955.02
2018-08-03T01:39:57.183Z,101953.72
2018-08-03T01:42:26.610Z,101946.19
2018-08-03T01:44:55.997Z,101950.92
2018-08-03T01:47:25.350Z,101945.50
2018-08-03T01:49:54.802Z,101954.72
2018-08-03T01:52:24.154Z,101950.89
2018-08-03T01:54:53.581Z,101945.08
2018-08-03T01:57:22.998Z,101948.59
2018-08-03T01:59:52.437Z,101946.70
2018-08-03T02:02:22.051Z,101948.48
2018-08-03T02:04:51.522Z,101950.59
2018-08-03T02:07:20.937Z,101954.41
2018-08-03T02:09:50.317Z,101955.67
2018-08-03T02:12:19.773Z,101952.27
2018-08-03T02:14:49.221Z,101951.00
2018-08-03T02:17:18.690Z,101954.05
2018-08-03T02:19:48.157Z,101947.78
2018-08-03T02:22:18.162Z,101952.07
2018-08-03T02:24:47.575Z,101953.28
2018-08-03T02:27:17.608Z,101953.70
2018-08-03T02:29:46.959Z,101951.25
2018-08-03T02:32:16.403Z,101951.67
2018-08-03T02:34:45.697Z,101952.13
2018-08-03T02:37:15.070Z,101947.06
2018-08-03T02:39:44.482Z,101944.12
2018-08-03T02:42:13.620Z,101941.64
2018-08-03T02:44:43.059Z,101935.41
2018-08-03T02:47:12.548Z,101946.83
2018-08-03T02:49:42.557Z,101945.57
2018-08-03T02:52:12.065Z,101946.47
2018-08-03T02:54:41.945Z,101938.04
2018-08-03T02:57:11.385Z,101940.58
2018-08-03T02:59:40.877Z,101943.48
2018-08-03T03:02:10.237Z,101945.17
2018-08-03T03:04:39.650Z,101943.02
2018-08-03T03:07:09.078Z,101952.27
2018-08-03T03:09:39.400Z,101953.93
2018-08-03T03:12:10.177Z,101951.38
2018-08-03T03:14:39.540Z,101952.64
2018-08-03T03:17:09.054Z,101953.91
2018-08-03T03:19:38.488Z,101952.27
2018-08-03T03:22:07.857Z,101957.38
2018-08-03T03:24:37.399Z,101952.29
2018-08-03T03:27:06.873Z,101948.52
2018-08-03T03:29:36.273Z,101946.03
2018-08-03T03:32:06.645Z,101954.48
2018-08-03T03:34:35.994Z,101956.20
2018-08-03T03:37:05.468Z,101957.46
2018-08-03T03:39:34.838Z,101947.80
2018-08-03T03:42:04.197Z,101952.85
2018-08-03T03:44:33.627Z,101951.13
2018-08-03T03:47:03.762Z,101949.02
2018-08-03T03:49:33.113Z,101949.48
2018-08-03T03:52:02.510Z,101950.33
2018-08-03T03:54:32.078Z,101954.52
2018-08-03T03:57:01.542Z,101951.97
2018-08-03T03:59:30.938Z,101952.80
2018-08-03T04:02:00.447Z,101954.46
2018-08-03T04:04:29.845Z,101948.52
2018-08-03T04:06:59.380Z,101940.91
2018-08-03T04:09:28.766Z,101943.00
2018-08-03T04:11:58.194Z,101945.95
2018-08-03T04:14:27.520Z,101945.55
2018-08-03T04:16:56.709Z,101940.89
2018-08-03T04:19:26.005Z,101937.47
2018-08-03T04:21:55.454Z,101941.27
2018-08-03T04:24:24.858Z,101941.22
2018-08-03T04:26:54.322Z,101943.77
2018-08-03T04:29:23.789Z,101942.03
2018-08-03T04:31:53.162Z,101939.48
2018-08-03T04:34:22.505Z,101943.98
2018-08-03T04:36:51.886Z,101941.06
2018-08-03T04:39:21.279Z,101946.11
2018-08-03T04:41:50.737Z,101947.75
2018-08-03T04:44:20.257Z,101951.09
2018-08-03T04:46:49.686Z,101949.83
2018-08-03T04:49:19.124Z,101951.87
2018-08-03T04:51:48.645Z,101950.53
2018-08-03T04:54:17.997Z,101955.11
2018-08-03T04:56:47.485Z,101954.20
2018-08-03T04:59:16.941Z,101959.63
2018-08-03T05:01:46.566Z,101952.42
2018-08-03T05:04:15.958Z,101954.44
2018-08-03T05:06:45.357Z,101956.44
2018-08-03T05:09:14.845Z,101958.45
2018-08-03T05:11:44.173Z,101957.95
2018-08-03T05:14:13.619Z,101957.45
2018-08-03T05:16:42.930Z,101947.59
2018-08-03T05:19:12.336Z,101953.35
2018-08-03T05:21:41.621Z,101950.23
2018-08-03T05:24:11.052Z,101953.11
2018-08-03T05:26:40.377Z,101957.27
2018-08-03T05:29:09.778Z,101957.56
2018-08-03T05:31:40.234Z,101957.06
2018-08-03T05:34:09.635Z,101956.88
2018-08-03T05:36:39.057Z,101956.73
2018-08-03T05:39:11.138Z,101959.61
2018-08-03T05:41:40.830Z,101952.75
2018-08-03T05:44:10.341Z,101954.75
2018-08-03T05:46:39.866Z,101957.94
2018-08-03T05:49:09.183Z,101957.41
2018-08-03T05:51:38.603Z,101958.95
2018-08-03T05:54:08.270Z,101955.45
2018-08-03T05:56:37.677Z,101956.61
2018-08-03T05:59:07.298Z,101956.38
2018-08-03T06:01:36.477Z,101950.97
2018-08-03T06:04:05.896Z,101952.11
2018-08-03T06:06:35.327Z,101954.42
2018-08-03T06:09:07.429Z,101953.06
2018-08-03T06:11:37.120Z,101951.30
2018-08-03T06:14:07.194Z,101954.42
2018-08-03T06:16:36.734Z,101955.01
2018-08-03T06:19:06.427Z,101950.58
2018-08-03T06:21:35.913Z,101948.86
2018-08-03T06:24:05.426Z,101949.92
2018-08-03T06:26:34.785Z,101946.98
2018-08-03T06:29:04.434Z,101952.08
2018-08-03T06:31:33.811Z,101950.50
2018-08-03T06:34:03.235Z,101946.10
2018-08-03T06:36:32.650Z,101952.64
2018-08-03T06:39:02.013Z,101949.50
2018-08-03T06:41:31.462Z,101951.17
2018-08-03T06:44:00.822Z,101951.22
2018-08-03T06:46:30.501Z,101955.67
2018-08-03T06:48:59.933Z,101955.84
2018-08-03T06:51:29.296Z,101949.93
2018-08-03T06:53:58.797Z,101943.77
2018-08-03T06:56:30.803Z,101941.30
2018-08-03T06:59:00.499Z,101946.81
2018-08-03T07:01:34.298Z,101948.61
2018-08-03T07:04:04.788Z,101946.55
2018-08-03T07:06:36.340Z,101948.68
2018-08-03T07:09:12.861Z,101946.91
2018-08-03T07:11:43.722Z,101945.86
2018-08-03T07:14:14.222Z,101945.46
2018-08-03T07:16:44.478Z,101947.61
2018-08-03T07:19:15.576Z,101948.05
2018-08-03T07:21:44.783Z,101947.33
2018-08-03T07:24:15.427Z,101948.02
2018-08-03T07:26:45.450Z,101940.59
2018-08-03T07:29:15.122Z,101942.37
2018-08-03T07:31:45.104Z,101947.73
2018-08-03T07:34:14.631Z,101949.60
2018-08-03T07:36:44.628Z,101943.47
2018-08-03T07:39:13.988Z,101945.40
2018-08-03T07:41:43.402Z,101946.23
2018-08-03T07:44:12.901Z,101943.16
2018-08-03T07:46:42.606Z,101938.43
2018-08-03T07:49:12.716Z,101941.52
2018-08-03T07:51:42.161Z,101942.28
2018-08-03T07:54:11.618Z,101936.45
2018-08-03T07:56:41.072Z,101937.59
2018-08-03T07:59:10.713Z,101933.76
2018-08-03T08:01:40.118Z,101933.76
2018-08-03T08:04:10.175Z,101937.03
2018-08-03T08:06:39.602Z,101936.91
2018-08-03T08:09:11.223Z,101931.91
2018-08-03T08:11:41.187Z,101929.50
2018-08-03T08:14:10.590Z,101926.45
2018-08-03T08:16:40.213Z,101917.98
2018-08-03T08:19:10.922Z,101918.37
2018-08-03T08:21:40.722Z,101919.19
2018-08-03T08:24:10.286Z,101919.14
2018-08-03T08:26:41.028Z,101912.42
2018-08-03T08:29:10.428Z,101910.92
2018-08-03T08:31:40.577Z,101910.56
2018-08-03T08:34:09.883Z,101909.67
2018-08-03T08:36:39.228Z,101910.11
2018-08-03T08:39:12.243Z,101905.65
2018-08-03T08:41:42.689Z,101904.48
2018-08-03T08:44:13.161Z,101898.60
2018-08-03T08:46:43.038Z,101892.60
2018-08-03T08:49:12.461Z,101891.48
2018-08-03T08:51:41.817Z,101885.62
2018-08-03T08:54:11.217Z,101886.67
2018-08-03T08:56:40.606Z,101890.17
2018-08-03T08:59:10.269Z,101882.32
2018-08-03T09:01:40.291Z,101876.66
2018-08-03T09:04:09.780Z,101882.62
2018-08-03T09:06:39.163Z,101880.21
2018-08-03T09:09:10.665Z,101880.31
2018-08-03T09:11:40.353Z,101885.44
2018-08-03T09:14:09.762Z,101877.30
2018-08-03T09:16:39.269Z,101872.41
2018-08-03T09:19:08.645Z,101864.09
2018-08-03T09:21:38.105Z,101867.41
2018-08-03T09:24:07.470Z,101866.41
2018-08-03T09:26:37.169Z,101860.45
2018-08-03T09:29:06.693Z,101863.70
2018-08-03T09:31:36.206Z,101862.31
2018-08-03T09:34:05.598Z,101858.19
2018-08-03T09:36:35.166Z,101853.41
2018-08-03T09:39:06.525Z,101855.23
2018-08-03T09:41:35.954Z,101851.66
2018-08-03T09:44:05.771Z,101852.65
2018-08-03T09:46:35.318Z,101858.37
2018-08-03T09:49:04.712Z,101846.23
2018-08-03T09:51:34.182Z,101842.28
2018-08-03T09:54:03.689Z,101843.90
2018-08-03T09:56:33.181Z,101838.80
2018-08-03T09:59:02.599Z,101832.08
2018-08-03T10:01:31.948Z,101824.78
2018-08-03T10:04:01.539Z,101828.38
2018-08-03T10:06:30.953Z,101823.09
2018-08-03T10:09:00.412Z,101819.09
2018-08-03T10:11:29.837Z,101817.25
2018-08-03T10:13:59.200Z,101825.34
2018-08-03T10:16:28.769Z,101818.14
2018-08-03T10:18:58.765Z,101819.25
2018-08-03T10:21:28.147Z,101807.61
2018-08-03T10:23:57.565Z,101811.02
2018-08-03T10:26:27.063Z,101812.80
2018-08-03T10:28:56.493Z,101806.02
2018-08-03T10:31:25.660Z,101803.45
2018-08-03T10:33:55.520Z,101802.08
2018-08-03T10:36:25.046Z,101795.75
2018-08-03T10:38:54.422Z,101793.92
2018-08-03T10:41:24.209Z,101791.08
2018-08-03T10:43:53.579Z,101786.85
2018-08-03T10:46:23.922Z,101792.98
2018-08-03T10:48:53.835Z,101795.01
2018-08-03T10:51:23.266Z,101790.34
2018-08-03T10:53:52.641Z,101785.55
2018-08-03T10:56:22.053Z,101787.18
2018-08-03T10:58:51.581Z,101787.76
2018-08-03T11:01:21.070Z,101780.94
2018-08-03T11:03:50.499Z,101774.57
2018-08-03T11:06:19.999Z,101776.44
2018-08-03T11:08:49.386Z,101775.96
2018-08-03T11:11:18.993Z,101784.61
2018-08-03T11:13:48.562Z,101776.00
2018-08-03T11:16:17.929Z,101773.22
2018-08-03T11:18:48.321Z,101771.84
2018-08-03T11:21:18.282Z,101783.45
2018-08-03T11:23:47.802Z,101771.94
2018-08-03T11:26:17.189Z,101768.25
2018-08-03T11:28:46.369Z,101773.91
2018-08-03T11:31:15.770Z,101773.88
2018-08-03T11:33:45.159Z,101768.80
2018-08-03T11:36:14.580Z,101760.49
2018-08-03T11:38:44.191Z,101762.11
2018-08-03T11:41:13.590Z,101764.45
2018-08-03T11:43:43.014Z,101763.53
2018-08-03T11:46:12.509Z,101761.47
2018-08-03T11:48:41.902Z,101757.61
2018-08-03T11:51:11.529Z,101753.59
2018-08-03T11:53:40.703Z,101747.19
2018-08-03T11:56:10.069Z,101743.64
2018-08-03T11:58:39.477Z,101736.94
2018-08-03T12:01:08.906Z,101734.44
2018-08-03T12:03:38.321Z,101737.02
2018-08-03T12:06:07.726Z,101729.10
2018-08-03T12:08:37.121Z,101730.56
2018-08-03T12:11:06.533Z,101726.41
2018-08-03T12:13:35.953Z,101718.94
2018-08-03T12:16:05.358Z,101722.11
2018-08-03T12:18:34.725Z,101732.55
2018-08-03T12:21:04.102Z,101730.40
2018-08-03T12:23:33.544Z,101730.11
2018-08-03T12:26:02.901Z,101730.64
2018-08-03T12:28:32.253Z,101720.56
2018-08-03T12:31:01.672Z,101717.28
2018-08-03T12:33:31.026Z,101716.52
2018-08-03T12:36:00.539Z,101708.53
2018-08-03T12:38:29.897Z,101702.64
2018-08-03T12:40:59.317Z,101696.95
2018-08-03T12:43:28.794Z,101701.14
2018-08-03T12:45:58.433Z,101698.29
2018-08-03T12:48:27.881Z,101687.67
2018-08-03T12:50:57.254Z,101689.52
2018-08-03T12:53:26.622Z,101685.91
2018-08-03T12:55:56.437Z,101687.78
2018-08-03T12:58:25.806Z,101683.30
2018-08-03T13:00:55.265Z,101674.35
2018-08-03T13:03:24.645Z,101673.82
2018-08-03T13:05:54.024Z,101675.48
2018-08-03T13:08:23.586Z,101673.75
2018-08-03T13:10:53.105Z,101669.69
2018-08-03T13:13:23.495Z,101663.20
2018-08-03T13:15:52.873Z,101655.84
2018-08-03T13:18:22.351Z,101656.39
2018-08-03T13:20:52.276Z,101662.97
2018-08-03T13:23:22.573Z,101664.08
2018-08-03T13:25:52.038Z,101662.23
2018-08-03T13:28:21.435Z,101657.16
2018-08-03T13:30:50.934Z,101656.87
2018-08-03T13:33:20.456Z,101654.96
2018-08-03T13:35:49.753Z,101649.50
2018-08-03T13:38:19.542Z,101644.88
2018-08-03T13:40:49.694Z,101645.67
2018-08-03T13:43:19.037Z,101637.75
2018-08-03T13:45:50.342Z,101632.59
2018-08-03T13:48:19.702Z,101633.58
2018-08-03T13:50:49.134Z,101633.45
2018-08-03T13:53:18.585Z,101644.33
2018-08-03T13:55:48.009Z,101634.60
2018-08-03T13:58:17.391Z,101639.76
2018-08-03T14:00:47.919Z,101639.83
2018-08-03T14:03:17.416Z,101640.13
2018-08-03T14:05:46.765Z,101630.39
2018-08-03T14:08:16.157Z,101628.12
2018-08-03T14:10:45.578Z,101630.98
2018-08-03T14:13:15.815Z,101624.07
2018-08-03T14:15:45.186Z,101619.38
2018-08-03T14:18:14.638Z,101625.91
2018-08-03T14:20:44.252Z,101616.16
2018-08-03T14:23:13.628Z,101620.38
2018-08-03T14:25:43.300Z,101619.16
2018-08-03T14:28:13.029Z,101619.25
2018-08-03T14:30:43.813Z,101614.61
2018-08-03T14:33:13.574Z,101619.27
2018-08-03T14:35:43.022Z,101614.78
2018-08-03T14:38:12.470Z,101613.23
2018-08-03T14:40:42.442Z,101606.03
2018-08-03T14:43:11.838Z,101618.48
2018-08-03T14:45:41.221Z,101611.00
2018-08-03T14:48:10.676Z,101606.24
2018-08-03T14:50:40.460Z,101600.09
2018-08-03T14:53:09.986Z,101597.62
2018-08-03T14:55:39.602Z,101597.88
2018-08-03T14:58:08.960Z,101602.41
2018-08-03T15:00:38.413Z,101599.55
2018-08-03T15:03:07.787Z,101586.30
2018-08-03T15:05:37.238Z,101582.94
2018-08-03T15:08:07.330Z,101590.18
2018-08-03T15:10:36.757Z,101592.47
2018-08-03T15:13:06.177Z,101595.45
2018-08-03T15:15:35.669Z,101586.55
2018-08-03T15:18:05.168Z,101584.05
2018-08-03T15:20:34.630Z,101585.25
2018-08-03T15:23:03.995Z,101581.05
2018-08-03T15:25:33.358Z,101586.97
2018-08-03T15:28:04.073Z,101588.66
2018-08-03T15:30:33.593Z,101589.46
2018-08-03T15:33:03.500Z,101577.91
2018-08-03T15:35:32.921Z,101579.45
2018-08-03T15:38:02.329Z,101587.10
2018-08-03T15:40:31.661Z,101578.86
2018-08-03T15:43:01.157Z,101579.75
2018-08-03T15:45:30.642Z,101579.30
2018-08-03T15:48:00.031Z,101582.27
2018-08-03T15:50:29.389Z,101581.44
2018-08-03T15:52:59.081Z,101574.72
2018-08-03T15:55:29.231Z,101572.98
2018-08-03T15:57:58.746Z,101566.48
2018-08-03T16:00:28.149Z,101560.72
2018-08-03T16:02:57.762Z,101558.47
2018-08-03T16:05:27.207Z,101555.23
2018-08-03T16:07:56.571Z,101555.33
2018-08-03T16:10:25.949Z,101559.50
2018-08-03T16:12:55.369Z,101561.86
2018-08-03T16:15:24.702Z,101555.87
2018-08-03T16:17:54.102Z,101551.41
2018-08-03T16:20:23.462Z,101551.45
2018-08-03T16:22:53.066Z,101549.66
2018-08-03T16:25:22.479Z,101546.89
2018-08-03T16:27:52.118Z,101551.09
2018-08-03T16:30:21.737Z,101542.58
2018-08-03T16:32:51.130Z,101544.03
2018-08-03T16:35:20.577Z,101544.55
2018-08-03T16:37:50.174Z,101549.05
2018-08-03T16:40:19.730Z,101546.88
2018-08-03T16:42:49.219Z,101547.52
2018-08-03T16:45:18.729Z,101546.10
2018-08-03T16:47:48.192Z,101544.34
2018-08-03T16:50:17.557Z,101541.82
2018-08-03T16:52:47.013Z,101545.42
2018-08-03T16:55:16.402Z,101549.00
2018-08-03T16:57:45.812Z,101547.28
2018-08-03T17:00:17.902Z,101546.80
2018-08-03T17:02:47.909Z,101545.24
2018-08-03T17:05:17.272Z,101545.80
2018-08-03T17:07:46.703Z,101553.11
2018-08-03T17:10:16.090Z,101560.06
2018-08-03T17:12:45.517Z,101555.70
2018-08-03T17:15:14.887Z,101551.50
2018-08-03T17:17:44.285Z,101557.27
2018-08-03T17:20:13.732Z,101551.84
2018-08-03T17:22:43.116Z,101546.88
2018-08-03T17:25:13.117Z,101545.20
2018-08-03T17:27:42.699Z,101549.07
2018-08-03T17:30:12.170Z,101545.79
2018-08-03T17:32:41.591Z,101547.09
2018-08-03T17:35:10.893Z,101539.38
2018-08-03T17:37:41.277Z,101545.36
2018-08-03T17:40:10.657Z,101552.08
2018-08-03T17:42:40.135Z,101552.52
2018-08-03T17:45:09.945Z,101550.52
2018-08-03T17:47:39.304Z,101545.28
2018-08-03T17:50:08.741Z,101549.70
2018-08-03T17:52:37.869Z,101549.22
2018-08-03T17:55:07.334Z,101549.16
2018-08-03T17:57:36.691Z,101547.34
2018-08-03T18:00:06.650Z,101545.80
2018-08-03T18:02:36.037Z,101552.41
2018-08-03T18:05:05.583Z,101551.72
2018-08-03T18:07:35.055Z,101555.17
2018-08-03T18:10:04.479Z,101558.39
2018-08-03T18:12:33.862Z,101556.20
2018-08-03T18:15:03.426Z,101556.94
2018-08-03T18:17:32.885Z,101557.17
2018-08-03T18:20:02.898Z,101559.15
2018-08-03T18:22:32.305Z,101557.22
2018-08-03T18:25:01.827Z,101563.31
2018-08-03T18:27:31.209Z,101554.55
2018-08-03T18:30:00.622Z,101560.08
2018-08-03T18:32:30.131Z,101555.48
2018-08-03T18:34:59.554Z,101557.33
2018-08-03T18:37:29.006Z,101556.86
2018-08-03T18:39:58.450Z,101559.06
2018-08-03T18:42:27.784Z,101553.55
2018-08-03T18:44:57.276Z,101550.61
2018-08-03T18:47:26.831Z,101554.45
2018-08-03T18:49:56.242Z,101556.89
2018-08-03T18:52:25.681Z,101563.22
2018-08-03T18:54:55.320Z,101565.20
2018-08-03T18:57:25.248Z,101566.03
2018-08-03T18:59:54.626Z,101569.69
2018-08-03T19:02:24.209Z,101576.17
2018-08-03T19:04:53.605Z,101574.16
2018-08-03T19:07:23.113Z,101577.99
2018-08-03T19:09:52.496Z,101573.81
2018-08-03T19:12:21.949Z,101578.87
2018-08-03T19:14:51.535Z,101586.36
2018-08-03T19:17:21.049Z,101588.30
2018-08-03T19:19:50.418Z,101590.17
2018-08-03T19:22:19.789Z,101595.66
2018-08-03T19:24:49.225Z,101594.59
2018-08-03T19:27:18.660Z,101601.78
2018-08-03T19:29:48.185Z,101602.22
2018-08-03T19:32:17.658Z,101600.81
2018-08-03T19:34:47.048Z,101604.55
2018-08-03T19:37:16.512Z,101602.88
2018-08-03T19:39:45.960Z,101609.20
2018-08-03T19:42:15.398Z,101608.70
2018-08-03T19:44:44.820Z,101610.41
2018-08-03T19:47:14.355Z,101607.86
2018-08-03T19:49:43.690Z,101613.19
2018-08-03T19:52:13.081Z,101618.08
2018-08-03T19:54:42.481Z,101611.52
2018-08-03T19:57:11.933Z,101616.87
2018-08-03T19:59:41.199Z,101614.01
2018-08-03T20:02:10.850Z,101610.38
2018-08-03T20:04:40.201Z,101609.86
2018-08-03T20:07:10.350Z,101617.06
2018-08-03T20:09:39.770Z,101619.59
2018-08-03T20:12:09.218Z,101626.18
2018-08-03T20:14:38.645Z,101627.42
2018-08-03T20:17:08.275Z,101619.52
2018-08-03T20:19:37.950Z,101619.42
2018-08-03T20:22:12.420Z,101617.41
2018-08-03T20:24:42.069Z,101621.77
2018-08-03T20:27:11.529Z,101613.66
2018-08-03T20:29:41.329Z,101621.64
2018-08-03T20:32:10.719Z,101616.48
2018-08-03T20:34:40.145Z,101612.77
2018-08-03T20:37:09.529Z,101611.15
2018-08-03T20:39:39.013Z,101610.08
2018-08-03T20:42:08.391Z,101617.43
2018-08-03T20:44:37.846Z,101616.47
2018-08-03T20:47:07.295Z,101614.75
2018-08-03T20:49:36.851Z,101622.84
2018-08-03T20:52:06.290Z,101619.22
2018-08-03T20:54:35.376Z,101620.16
2018-08-03T20:57:04.858Z,101616.18
2018-08-03T20:59:34.497Z,101619.77
2018-08-03T21:02:03.903Z,101620.26
2018-08-03T21:04:33.266Z,101623.25
2018-08-03T21:07:02.722Z,101626.56
2018-08-03T21:09:31.905Z,101623.22
2018-08-03T21:12:01.321Z,101622.38
2018-08-03T21:14:30.925Z,101621.81
2018-08-03T21:17:00.293Z,101619.02
2018-08-03T21:19:29.766Z,101613.98
2018-08-03T21:21:59.445Z,101610.17
2018-08-03T21:24:28.922Z,101622.63
2018-08-03T21:26:58.301Z,101624.32
2018-08-03T21:29:27.758Z,101620.83
2018-08-03T21:31:57.085Z,101617.98
2018-08-03T21:34:26.543Z,101612.86
2018-08-03T21:36:55.942Z,101618.22
2018-08-03T21:39:25.317Z,101610.09
2018-08-03T21:41:54.485Z,101610.03
2018-08-03T21:44:23.933Z,101607.19
2018-08-03T21:46:53.369Z,101602.27
2018-08-03T21:49:22.767Z,101595.64
2018-08-03T21:51:52.171Z,101600.01
2018-08-03T21:54:21.564Z,101596.14
2018-08-03T21:56:52.304Z,101590.76
2018-08-03T21:59:21.723Z,101595.13
2018-08-03T22:04:19.737Z,101600.10
2018-08-03T22:06:49.160Z,101592.00
2018-08-03T22:09:18.594Z,101594.55
2018-08-03T22:11:47.966Z,101601.69
2018-08-03T22:14:17.314Z,101600.75
2018-08-03T22:16:46.733Z,101607.27
2018-08-03T22:19:16.250Z,101607.23
2018-08-03T22:21:45.707Z,101601.80
2018-08-03T22:24:15.152Z,101602.97
2018-08-03T22:26:44.545Z,101609.81
2018-08-03T22:29:13.959Z,101607.17
2018-08-03T22:31:44.377Z,101597.27
2018-08-03T22:34:13.714Z,101605.47
2018-08-03T22:36:43.218Z,101610.41
2018-08-03T22:39:12.673Z,101606.14
2018-08-03T22:41:42.122Z,101602.27
2018-08-03T22:44:11.594Z,101605.84
2018-08-03T22:46:41.123Z,101602.86
2018-08-03T22:49:10.481Z,101604.66
2018-08-03T22:51:39.905Z,101600.20
2018-08-03T22:54:09.327Z,101602.24
2018-08-03T22:56:39.877Z,101602.83
2018-08-03T22:59:09.059Z,101611.05
2018-08-03T23:01:38.482Z,101610.45
2018-08-03T23:04:07.709Z,101606.56
2018-08-03T23:06:38.567Z,101599.98
2018-08-03T23:09:09.161Z,101609.29
2018-08-03T23:11:38.771Z,101605.53
2018-08-03T23:14:08.161Z,101606.92
2018-08-03T23:16:37.437Z,101608.19
2018-08-03T23:19:06.943Z,101607.24
2018-08-03T23:21:36.382Z,101607.41
2018-08-03T23:24:05.729Z,101600.63
2018-08-03T23:26:35.081Z,101605.30
2018-08-03T23:29:04.465Z,101604.72
2018-08-03T23:31:33.947Z,101599.47
2018-08-03T23:34:03.365Z,101596.20
2018-08-03T23:36:32.869Z,101592.94
2018-08-03T23:39:02.223Z,101596.20
2018-08-03T23:41:31.653Z,101597.64
2018-08-03T23:44:01.085Z,101595.11
2018-08-03T23:46:30.457Z,101593.60
2018-08-03T23:48:59.840Z,101590.97
2018-08-03T23:51:30.122Z,101583.41
2018-08-03T23:53:59.508Z,101594.41
2018-08-03T23:56:29.037Z,101587.25
2018-08-03T23:58:58.416Z,101584.97
